sensor_id;sensor_type;location;lat;lon;timestamp;pressure;altitude;pressure_sealevel;temperature;humidity
25156;BME280;21913;52.456;13.634;2023-02-22T00:01:37;100260.47;;;11.93;70.09
25156;BME280;21913;52.456;13.634;2023-02-22T00:06:38;100257.00;;;11.94;70.13
25156;BME280;21913;52.456;13.634;2023-02-22T00:11:44;100261.31;;;11.95;70.12
25156;BME280;21913;52.456;13.634;2023-02-22T00:16:46;100253.53;;;11.95;70.14
25156;BME280;21913;52.456;13.634;2023-02-22T00:21:51;100242.31;;;11.95;70.18
25156;BME280;21913;52.456;13.634;2023-02-22T00:26:54;100248.38;;;11.95;70.20
25156;BME280;21913;52.456;13.634;2023-02-22T00:31:56;100246.63;;;11.94;70.28
25156;BME280;21913;52.456;13.634;2023-02-22T00:36:57;100246.63;;;11.94;70.13
25156;BME280;21913;52.456;13.634;2023-02-22T00:41:59;100235.41;;;11.95;70.20
25156;BME280;21913;52.456;13.634;2023-02-22T00:47:02;100231.09;;;11.94;70.18
25156;BME280;21913;52.456;13.634;2023-02-22T00:52:04;100231.09;;;11.94;70.13
25156;BME280;21913;52.456;13.634;2023-02-22T00:57:06;100219.84;;;11.94;70.07
25156;BME280;21913;52.456;13.634;2023-02-22T01:02:08;100219.84;;;11.95;70.18
25156;BME280;21913;52.456;13.634;2023-02-22T01:07:10;100212.06;;;11.94;70.25
25156;BME280;21913;52.456;13.634;2023-02-22T01:12:11;100208.59;;;11.95;70.12
25156;BME280;21913;52.456;13.634;2023-02-22T01:17:14;100207.75;;;11.94;70.25
25156;BME280;21913;52.456;13.634;2023-02-22T01:22:15;100199.97;;;11.94;70.28
25156;BME280;21913;52.456;13.634;2023-02-22T01:27:18;100187.00;;;11.94;70.28
25156;BME280;21913;52.456;13.634;2023-02-22T01:32:20;100190.47;;;11.95;70.15
25156;BME280;21913;52.456;13.634;2023-02-22T01:37:23;100179.22;;;11.94;70.18
25156;BME280;21913;52.456;13.634;2023-02-22T01:42:25;100185.28;;;11.95;70.28
25156;BME280;21913;52.456;13.634;2023-02-22T01:47:26;100184.41;;;11.94;70.24
25156;BME280;21913;52.456;13.634;2023-02-22T01:52:28;100170.59;;;11.94;70.10
25156;BME280;21913;52.456;13.634;2023-02-22T01:57:32;100171.44;;;11.94;70.33
25156;BME280;21913;52.456;13.634;2023-02-22T02:02:37;100161.94;;;11.95;70.08
25156;BME280;21913;52.456;13.634;2023-02-22T02:07:40;100162.78;;;11.95;70.16
25156;BME280;21913;52.456;13.634;2023-02-22T02:12:45;100148.09;;;11.94;70.12
25156;BME280;21913;52.456;13.634;2023-02-22T02:17:49;100145.53;;;11.94;70.13
25156;BME280;21913;52.456;13.634;2023-02-22T02:28:46;100144.66;;;11.95;70.17
25156;BME280;21913;52.456;13.634;2023-02-22T02:34:04;100138.59;;;11.95;70.32
25156;BME280;21913;52.456;13.634;2023-02-22T02:44:36;100123.91;;;11.95;70.21
25156;BME280;21913;52.456;13.634;2023-02-22T02:49:53;100123.91;;;11.94;70.13
25156;BME280;21913;52.456;13.634;2023-02-22T02:54:56;100122.19;;;11.93;70.30
25156;BME280;21913;52.456;13.634;2023-02-22T02:59:58;100118.72;;;11.94;70.25
25156;BME280;21913;52.456;13.634;2023-02-22T03:05:19;100111.81;;;11.94;70.26
25156;BME280;21913;52.456;13.634;2023-02-22T03:10:44;100102.31;;;11.95;70.13
25156;BME280;21913;52.456;13.634;2023-02-22T03:26:43;100098.84;;;11.94;70.24
25156;BME280;21913;52.456;13.634;2023-02-22T03:31:59;100085.88;;;11.94;70.14
25156;BME280;21913;52.456;13.634;2023-02-22T03:37:14;100090.19;;;11.95;70.16
25156;BME280;21913;52.456;13.634;2023-02-22T03:42:26;100079.84;;;11.94;70.21
25156;BME280;21913;52.456;13.634;2023-02-22T03:47:36;100078.09;;;11.94;70.21
25156;BME280;21913;52.456;13.634;2023-02-22T03:52:41;100080.69;;;11.94;70.24
25156;BME280;21913;52.456;13.634;2023-02-22T03:57:53;100081.56;;;11.93;70.20
25156;BME280;21913;52.456;13.634;2023-02-22T04:02:55;100078.97;;;11.93;70.06
25156;BME280;21913;52.456;13.634;2023-02-22T04:07:57;100079.84;;;11.94;70.13
25156;BME280;21913;52.456;13.634;2023-02-22T04:13:00;100068.59;;;11.93;70.15
25156;BME280;21913;52.456;13.634;2023-02-22T04:18:02;100073.78;;;11.93;70.18
25156;BME280;21913;52.456;13.634;2023-02-22T04:23:04;100063.44;;;11.93;70.11
25156;BME280;21913;52.456;13.634;2023-02-22T04:28:06;100054.78;;;11.93;70.13
25156;BME280;21913;52.456;13.634;2023-02-22T04:33:15;100058.25;;;11.93;70.23
25156;BME280;21913;52.456;13.634;2023-02-22T04:38:17;100050.44;;;11.95;70.26
25156;BME280;21913;52.456;13.634;2023-02-22T04:43:19;100059.09;;;11.94;70.27
25156;BME280;21913;52.456;13.634;2023-02-22T04:48:24;100047.00;;;11.93;70.20
25156;BME280;21913;52.456;13.634;2023-02-22T04:53:25;100049.59;;;11.93;70.09
25156;BME280;21913;52.456;13.634;2023-02-22T04:58:29;100047.00;;;11.93;70.02
25156;BME280;21913;52.456;13.634;2023-02-22T05:03:31;100038.38;;;11.92;70.10
25156;BME280;21913;52.456;13.634;2023-02-22T05:08:32;100032.31;;;11.93;70.25
25156;BME280;21913;52.456;13.634;2023-02-22T05:13:34;100035.78;;;11.92;69.98
25156;BME280;21913;52.456;13.634;2023-02-22T05:18:36;100037.50;;;11.93;70.11
25156;BME280;21913;52.456;13.634;2023-02-22T05:23:38;100036.63;;;11.93;70.17
25156;BME280;21913;52.456;13.634;2023-02-22T05:28:40;100034.03;;;11.93;70.09
25156;BME280;21913;52.456;13.634;2023-02-22T05:33:42;100034.91;;;11.93;70.08
25156;BME280;21913;52.456;13.634;2023-02-22T05:38:43;100022.81;;;11.92;70.02
25156;BME280;21913;52.456;13.634;2023-02-22T05:43:45;100015.91;;;11.91;70.11
25156;BME280;21913;52.456;13.634;2023-02-22T05:48:46;100012.44;;;11.92;70.08
25156;BME280;21913;52.456;13.634;2023-02-22T05:53:48;100004.66;;;11.92;69.98
25156;BME280;21913;52.456;13.634;2023-02-22T05:58:50;99997.75;;;11.93;70.04
25156;BME280;21913;52.456;13.634;2023-02-22T06:03:52;99998.63;;;11.92;69.96
25156;BME280;21913;52.456;13.634;2023-02-22T06:08:54;99996.88;;;11.92;69.87
25156;BME280;21913;52.456;13.634;2023-02-22T06:13:55;99998.63;;;11.92;70.06
25156;BME280;21913;52.456;13.634;2023-02-22T06:18:57;99997.75;;;11.91;69.71
25156;BME280;21913;52.456;13.634;2023-02-22T06:24:01;99997.75;;;11.93;70.03
25156;BME280;21913;52.456;13.634;2023-02-22T06:29:03;99993.44;;;11.92;69.90
25156;BME280;21913;52.456;13.634;2023-02-22T06:34:04;99999.47;;;11.92;69.99
25156;BME280;21913;52.456;13.634;2023-02-22T06:39:06;100002.94;;;11.91;69.96
25156;BME280;21913;52.456;13.634;2023-02-22T06:44:08;100017.63;;;11.92;69.99
25156;BME280;21913;52.456;13.634;2023-02-22T06:49:12;100021.09;;;11.93;70.00
25156;BME280;21913;52.456;13.634;2023-02-22T06:54:14;100018.50;;;11.93;69.92
25156;BME280;21913;52.456;13.634;2023-02-22T06:59:16;100017.63;;;11.92;70.07
25156;BME280;21913;52.456;13.634;2023-02-22T07:04:18;100019.38;;;11.92;70.02
25156;BME280;21913;52.456;13.634;2023-02-22T07:09:20;100017.63;;;11.92;69.87
25156;BME280;21913;52.456;13.634;2023-02-22T07:14:21;100024.56;;;11.92;69.87
25156;BME280;21913;52.456;13.634;2023-02-22T07:19:23;100020.22;;;11.92;69.93
25156;BME280;21913;52.456;13.634;2023-02-22T07:24:26;100022.84;;;11.91;69.95
25156;BME280;21913;52.456;13.634;2023-02-22T07:29:28;100023.69;;;11.91;69.99
25156;BME280;21913;52.456;13.634;2023-02-22T07:34:29;100026.28;;;11.91;70.03
25156;BME280;21913;52.456;13.634;2023-02-22T07:39:31;100016.78;;;11.92;69.96
25156;BME280;21913;52.456;13.634;2023-02-22T07:44:32;100014.19;;;11.92;69.92
25156;BME280;21913;52.456;13.634;2023-02-22T07:49:34;100012.47;;;11.91;69.97
25156;BME280;21913;52.456;13.634;2023-02-22T07:54:36;100015.06;;;11.91;70.00
25156;BME280;21913;52.456;13.634;2023-02-22T07:59:37;100009.00;;;11.92;69.85
25156;BME280;21913;52.456;13.634;2023-02-22T08:04:39;100014.19;;;11.92;70.02
25156;BME280;21913;52.456;13.634;2023-02-22T08:09:41;100013.31;;;11.91;69.96
25156;BME280;21913;52.456;13.634;2023-02-22T08:14:42;100010.72;;;11.93;70.00
25156;BME280;21913;52.456;13.634;2023-02-22T08:19:44;100003.81;;;11.92;70.00
25156;BME280;21913;52.456;13.634;2023-02-22T08:24:45;99999.47;;;11.92;70.08
25156;BME280;21913;52.456;13.634;2023-02-22T08:29:47;99994.28;;;11.92;69.86
25156;BME280;21913;52.456;13.634;2023-02-22T08:34:49;99991.69;;;11.92;69.98
25156;BME280;21913;52.456;13.634;2023-02-22T08:39:52;99989.09;;;11.92;69.95
25156;BME280;21913;52.456;13.634;2023-02-22T08:44:54;99986.53;;;11.92;69.93
25156;BME280;21913;52.456;13.634;2023-02-22T08:49:55;99989.09;;;11.92;70.01
25156;BME280;21913;52.456;13.634;2023-02-22T08:54:57;99978.75;;;11.92;69.98
25156;BME280;21913;52.456;13.634;2023-02-22T08:59:58;99974.44;;;11.91;69.90
25156;BME280;21913;52.456;13.634;2023-02-22T09:05:00;99965.78;;;11.91;69.85
25156;BME280;21913;52.456;13.634;2023-02-22T09:10:02;99972.69;;;11.92;69.73
25156;BME280;21913;52.456;13.634;2023-02-22T09:15:04;99968.38;;;11.92;69.76
25156;BME280;21913;52.456;13.634;2023-02-22T09:20:06;99966.63;;;11.93;69.66
25156;BME280;21913;52.456;13.634;2023-02-22T09:25:08;99953.69;;;11.90;69.70
25156;BME280;21913;52.456;13.634;2023-02-22T09:30:21;99951.94;;;11.90;69.47
25156;BME280;21913;52.456;13.634;2023-02-22T09:35:23;99947.66;;;11.91;69.41
25156;BME280;21913;52.456;13.634;2023-02-22T09:40:28;99939.88;;;11.91;69.29
25156;BME280;21913;52.456;13.634;2023-02-22T09:45:41;99942.44;;;11.92;69.35
25156;BME280;21913;52.456;13.634;2023-02-22T09:50:48;99941.59;;;11.92;69.44
25156;BME280;21913;52.456;13.634;2023-02-22T09:55:52;99934.66;;;11.92;69.39
25156;BME280;21913;52.456;13.634;2023-02-22T10:00:57;99929.47;;;11.94;69.48
25156;BME280;21913;52.456;13.634;2023-02-22T10:06:04;99929.47;;;11.94;69.37
25156;BME280;21913;52.456;13.634;2023-02-22T10:11:22;99928.59;;;11.95;69.46
25156;BME280;21913;52.456;13.634;2023-02-22T10:16:33;99927.72;;;11.94;69.45
25156;BME280;21913;52.456;13.634;2023-02-22T10:22:03;99919.06;;;11.95;69.45
25156;BME280;21913;52.456;13.634;2023-02-22T10:27:16;99921.66;;;11.95;69.52
25156;BME280;21913;52.456;13.634;2023-02-22T10:32:33;99918.22;;;11.95;69.55
25156;BME280;21913;52.456;13.634;2023-02-22T10:37:36;99919.94;;;11.94;69.65
25156;BME280;21913;52.456;13.634;2023-02-22T10:42:38;99915.63;;;11.95;69.74
25156;BME280;21913;52.456;13.634;2023-02-22T10:47:40;99912.16;;;11.94;69.75
25156;BME280;21913;52.456;13.634;2023-02-22T10:52:42;99907.84;;;11.95;69.72
25156;BME280;21913;52.456;13.634;2023-02-22T10:57:45;99903.50;;;11.95;69.74
25156;BME280;21913;52.456;13.634;2023-02-22T11:02:56;99903.50;;;11.95;69.65
25156;BME280;21913;52.456;13.634;2023-02-22T11:08:30;99900.91;;;11.95;69.59
25156;BME280;21913;52.456;13.634;2023-02-22T11:13:36;99900.06;;;11.96;69.65
25156;BME280;21913;52.456;13.634;2023-02-22T11:18:38;99888.81;;;11.96;69.71
25156;BME280;21913;52.456;13.634;2023-02-22T11:23:41;99886.22;;;11.96;69.69
25156;BME280;21913;52.456;13.634;2023-02-22T11:28:49;99887.09;;;11.96;69.62
25156;BME280;21913;52.456;13.634;2023-02-22T11:33:54;99875.00;;;11.97;69.70
25156;BME280;21913;52.456;13.634;2023-02-22T11:38:56;99873.25;;;11.97;69.74
25156;BME280;21913;52.456;13.634;2023-02-22T11:44:33;99861.16;;;11.98;69.58
25156;BME280;21913;52.456;13.634;2023-02-22T11:49:37;99862.00;;;11.98;69.73
25156;BME280;21913;52.456;13.634;2023-02-22T12:11:27;99836.97;;;11.97;69.76
25156;BME280;21913;52.456;13.634;2023-02-22T12:21:58;99833.50;;;11.98;69.71
25156;BME280;21913;52.456;13.634;2023-02-22T12:27:07;99825.72;;;11.98;69.66
25156;BME280;21913;52.456;13.634;2023-02-22T12:32:23;99825.72;;;11.98;69.84
25156;BME280;21913;52.456;13.634;2023-02-22T12:37:35;99823.13;;;11.98;69.87
25156;BME280;21913;52.456;13.634;2023-02-22T12:48:48;99815.34;;;11.98;69.73
25156;BME280;21913;52.456;13.634;2023-02-22T12:53:58;99812.75;;;11.98;69.76
25156;BME280;21913;52.456;13.634;2023-02-22T12:59:18;99808.44;;;11.99;69.64
25156;BME280;21913;52.456;13.634;2023-02-22T13:04:21;99802.38;;;11.98;69.73
25156;BME280;21913;52.456;13.634;2023-02-22T13:09:32;99804.09;;;11.99;69.71
25156;BME280;21913;52.456;13.634;2023-02-22T13:56:33;99766.09;;;11.98;69.82
25156;BME280;21913;52.456;13.634;2023-02-22T14:06:44;99762.59;;;11.99;69.68
25156;BME280;21913;52.456;13.634;2023-02-22T14:11:46;99761.72;;;12.00;69.64
25156;BME280;21913;52.456;13.634;2023-02-22T14:17:24;99763.47;;;12.00;69.80
25156;BME280;21913;52.456;13.634;2023-02-22T14:22:28;99772.97;;;11.99;69.77
25156;BME280;21913;52.456;13.634;2023-02-22T14:27:41;99772.09;;;12.00;69.80
25156;BME280;21913;52.456;13.634;2023-02-22T14:32:44;99769.53;;;11.99;69.76
25156;BME280;21913;52.456;13.634;2023-02-22T14:37:54;99765.19;;;12.01;69.80
25156;BME280;21913;52.456;13.634;2023-02-22T14:43:11;99759.97;;;12.04;68.80
25156;BME280;21913;52.456;13.634;2023-02-22T14:48:38;99761.66;;;12.06;68.65
25156;BME280;21913;52.456;13.634;2023-02-22T14:53:50;99765.13;;;12.07;68.90
25156;BME280;21913;52.456;13.634;2023-02-22T14:58:57;99764.25;;;12.06;69.14
25156;BME280;21913;52.456;13.634;2023-02-22T15:09:27;99765.13;;;12.05;69.38
25156;BME280;21913;52.456;13.634;2023-02-22T15:14:34;99762.56;;;12.04;69.47
25156;BME280;21913;52.456;13.634;2023-02-22T15:19:38;99766.00;;;12.04;69.52
25156;BME280;21913;52.456;13.634;2023-02-22T15:24:43;99759.13;;;12.03;69.44
25156;BME280;21913;52.456;13.634;2023-02-22T15:29:57;99761.72;;;12.03;69.51
25156;BME280;21913;52.456;13.634;2023-02-22T15:35:13;99756.53;;;12.03;69.36
25156;BME280;21913;52.456;13.634;2023-02-22T15:40:19;99764.31;;;12.03;69.60
25156;BME280;21913;52.456;13.634;2023-02-22T15:45:22;99757.41;;;12.02;69.58
25156;BME280;21913;52.456;13.634;2023-02-22T15:50:29;99763.44;;;12.03;69.49
25156;BME280;21913;52.456;13.634;2023-02-22T15:55:39;99766.03;;;12.03;69.61
25156;BME280;21913;52.456;13.634;2023-02-22T16:00:43;99768.63;;;12.03;69.74
25156;BME280;21913;52.456;13.634;2023-02-22T16:05:52;99762.59;;;12.02;69.76
25156;BME280;21913;52.456;13.634;2023-02-22T16:11:04;99763.44;;;12.03;69.69
25156;BME280;21913;52.456;13.634;2023-02-22T16:21:21;99770.38;;;12.01;69.76
25156;BME280;21913;52.456;13.634;2023-02-22T16:26:33;99767.78;;;12.02;69.59
25156;BME280;21913;52.456;13.634;2023-02-22T16:31:37;99767.78;;;12.01;69.89
25156;BME280;21913;52.456;13.634;2023-02-22T16:36:44;99771.22;;;12.01;69.77
25156;BME280;21913;52.456;13.634;2023-02-22T16:41:46;99778.13;;;12.01;69.93
25156;BME280;21913;52.456;13.634;2023-02-22T16:46:48;99775.53;;;12.01;69.85
25156;BME280;21913;52.456;13.634;2023-02-22T16:51:52;99782.47;;;12.02;69.81
25156;BME280;21913;52.456;13.634;2023-02-22T16:56:56;99774.69;;;12.02;69.81
25156;BME280;21913;52.456;13.634;2023-02-22T17:01:58;99782.47;;;12.02;69.89
25156;BME280;21913;52.456;13.634;2023-02-22T17:07:00;99786.78;;;12.03;69.95
25156;BME280;21913;52.456;13.634;2023-02-22T17:12:03;99791.97;;;12.03;69.88
25156;BME280;21913;52.456;13.634;2023-02-22T17:17:04;99790.25;;;12.02;69.86
25156;BME280;21913;52.456;13.634;2023-02-22T17:22:06;99794.56;;;12.01;69.95
25156;BME280;21913;52.456;13.634;2023-02-22T17:27:07;99790.25;;;12.02;69.87
25156;BME280;21913;52.456;13.634;2023-02-22T17:32:09;99797.16;;;12.01;69.85
25156;BME280;21913;52.456;13.634;2023-02-22T17:37:11;99798.03;;;12.02;69.84
25156;BME280;21913;52.456;13.634;2023-02-22T17:42:13;99806.66;;;12.02;69.87
25156;BME280;21913;52.456;13.634;2023-02-22T17:47:14;99809.25;;;12.02;69.86
25156;BME280;21913;52.456;13.634;2023-02-22T17:52:16;99805.81;;;12.02;70.04
25156;BME280;21913;52.456;13.634;2023-02-22T17:57:17;99811.00;;;12.02;70.01
25156;BME280;21913;52.456;13.634;2023-02-22T18:02:19;99822.22;;;12.02;69.86
25156;BME280;21913;52.456;13.634;2023-02-22T18:07:21;99810.13;;;12.01;69.96
25156;BME280;21913;52.456;13.634;2023-02-22T18:12:22;99817.88;;;12.01;69.92
25156;BME280;21913;52.456;13.634;2023-02-22T18:17:33;99823.97;;;12.02;70.01
25156;BME280;21913;52.456;13.634;2023-02-22T18:22:34;99817.03;;;12.02;69.84
25156;BME280;21913;52.456;13.634;2023-02-22T18:27:36;99818.78;;;12.02;70.00
25156;BME280;21913;52.456;13.634;2023-02-22T18:32:38;99819.63;;;12.02;69.88
25156;BME280;21913;52.456;13.634;2023-02-22T18:37:40;99824.81;;;12.02;69.96
25156;BME280;21913;52.456;13.634;2023-02-22T18:42:41;99829.16;;;12.02;70.04
25156;BME280;21913;52.456;13.634;2023-02-22T18:47:43;99819.63;;;12.01;69.92
25156;BME280;21913;52.456;13.634;2023-02-22T18:52:45;99826.56;;;12.02;69.87
25156;BME280;21913;52.456;13.634;2023-02-22T18:57:47;99823.97;;;12.02;69.90
25156;BME280;21913;52.456;13.634;2023-02-22T19:02:50;99821.38;;;12.02;70.03
25156;BME280;21913;52.456;13.634;2023-02-22T19:07:51;99824.81;;;12.01;70.07
25156;BME280;21913;52.456;13.634;2023-02-22T19:12:53;99826.56;;;12.02;70.03
25156;BME280;21913;52.456;13.634;2023-02-22T19:17:54;99826.56;;;12.02;69.93
25156;BME280;21913;52.456;13.634;2023-02-22T19:22:56;99827.41;;;12.02;70.08
25156;BME280;21913;52.456;13.634;2023-02-22T19:27:57;99828.25;;;12.01;69.98
25156;BME280;21913;52.456;13.634;2023-02-22T19:32:59;99826.56;;;12.00;69.90
25156;BME280;21913;52.456;13.634;2023-02-22T19:38:01;99833.44;;;12.01;69.72
25156;BME280;21913;52.456;13.634;2023-02-22T19:43:03;99829.16;;;12.02;69.66
25156;BME280;21913;52.456;13.634;2023-02-22T19:48:05;99837.78;;;12.02;69.71
25156;BME280;21913;52.456;13.634;2023-02-22T19:53:06;99836.94;;;12.02;69.75
25156;BME280;21913;52.456;13.634;2023-02-22T19:58:08;99834.31;;;12.03;69.89
25156;BME280;21913;52.456;13.634;2023-02-22T20:03:10;99833.47;;;12.03;69.72
25156;BME280;21913;52.456;13.634;2023-02-22T20:08:11;99837.78;;;12.02;69.71
25156;BME280;21913;52.456;13.634;2023-02-22T20:13:16;99837.78;;;12.02;69.75
25156;BME280;21913;52.456;13.634;2023-02-22T20:18:20;99837.78;;;12.02;69.87
25156;BME280;21913;52.456;13.634;2023-02-22T20:23:21;99847.31;;;12.02;69.83
25156;BME280;21913;52.456;13.634;2023-02-22T20:28:23;99852.50;;;12.02;69.80
25156;BME280;21913;52.456;13.634;2023-02-22T20:33:25;99851.59;;;12.03;69.95
25156;BME280;21913;52.456;13.634;2023-02-22T20:38:26;99861.13;;;12.02;69.96
25156;BME280;21913;52.456;13.634;2023-02-22T20:43:28;99861.13;;;12.02;69.80
25156;BME280;21913;52.456;13.634;2023-02-22T20:48:30;99862.84;;;12.03;70.00
25156;BME280;21913;52.456;13.634;2023-02-22T20:53:33;99868.03;;;12.03;69.84
25156;BME280;21913;52.456;13.634;2023-02-22T20:58:35;99867.16;;;12.03;69.83
25156;BME280;21913;52.456;13.634;2023-02-22T21:03:37;99870.63;;;12.03;70.01
25156;BME280;21913;52.456;13.634;2023-02-22T21:08:39;99872.34;;;12.03;70.00
25156;BME280;21913;52.456;13.634;2023-02-22T21:13:40;99881.00;;;12.03;70.14
25156;BME280;21913;52.456;13.634;2023-02-22T21:18:42;99880.09;;;12.04;69.87
25156;BME280;21913;52.456;13.634;2023-02-22T21:23:47;99878.41;;;12.03;69.98
25156;BME280;21913;52.456;13.634;2023-02-22T21:28:50;99872.34;;;12.03;69.94
25156;BME280;21913;52.456;13.634;2023-02-22T21:33:54;99881.84;;;12.04;69.85
25156;BME280;21913;52.456;13.634;2023-02-22T21:38:59;99879.25;;;12.04;70.00
25156;BME280;21913;52.456;13.634;2023-02-22T21:44:00;99885.28;;;12.04;69.86
25156;BME280;21913;52.456;13.634;2023-02-22T21:49:02;99883.59;;;12.03;69.80
25156;BME280;21913;52.456;13.634;2023-02-22T21:54:06;99891.34;;;12.03;69.84
25156;BME280;21913;52.456;13.634;2023-02-22T21:59:13;99894.81;;;12.04;69.90
25156;BME280;21913;52.456;13.634;2023-02-22T22:04:28;99897.41;;;12.04;69.90
25156;BME280;21913;52.456;13.634;2023-02-22T22:09:30;99894.81;;;12.04;70.01
25156;BME280;21913;52.456;13.634;2023-02-22T22:14:33;99894.84;;;12.02;69.93
25156;BME280;21913;52.456;13.634;2023-02-22T22:19:36;99893.94;;;12.03;69.97
25156;BME280;21913;52.456;13.634;2023-02-22T22:24:38;99899.13;;;12.03;70.03
25156;BME280;21913;52.456;13.634;2023-02-22T22:29:40;99899.13;;;12.03;69.95
25156;BME280;21913;52.456;13.634;2023-02-22T22:34:41;99899.13;;;12.03;69.89
25156;BME280;21913;52.456;13.634;2023-02-22T22:39:43;99897.41;;;12.04;69.96
25156;BME280;21913;52.456;13.634;2023-02-22T22:44:44;99903.47;;;12.03;69.88
25156;BME280;21913;52.456;13.634;2023-02-22T22:49:46;99911.22;;;12.04;69.79
25156;BME280;21913;52.456;13.634;2023-02-22T22:54:48;99918.16;;;12.04;69.98
25156;BME280;21913;52.456;13.634;2023-02-22T22:59:49;99909.50;;;12.03;69.94
25156;BME280;21913;52.456;13.634;2023-02-22T23:04:51;99915.56;;;12.04;69.84
25156;BME280;21913;52.456;13.634;2023-02-22T23:09:52;99912.09;;;12.03;69.96
25156;BME280;21913;52.456;13.634;2023-02-22T23:14:54;99908.66;;;12.03;69.90
25156;BME280;21913;52.456;13.634;2023-02-22T23:19:56;99909.50;;;12.03;70.07
25156;BME280;21913;52.456;13.634;2023-02-22T23:24:57;99909.50;;;12.03;70.04
25156;BME280;21913;52.456;13.634;2023-02-22T23:29:59;99919.88;;;12.03;70.01
25156;BME280;21913;52.456;13.634;2023-02-22T23:35:01;99919.88;;;12.03;69.93
25156;BME280;21913;52.456;13.634;2023-02-22T23:40:02;99919.03;;;12.03;70.09
25156;BME280;21913;52.456;13.634;2023-02-22T23:45:04;99922.47;;;12.03;69.98
25156;BME280;21913;52.456;13.634;2023-02-22T23:50:07;99925.94;;;12.04;69.87
25156;BME280;21913;52.456;13.634;2023-02-22T23:55:08;99929.38;;;12.04;69.98
